sensor_id;sensor_type;location;lat;lon;timestamp;temperature;humidity
15617;DHT22;7908;51.688;7.130;2024-01-30T00:00:20;3.60;99.90
15617;DHT22;7908;51.688;7.130;2024-01-30T00:02:50;3.60;99.90
15617;DHT22;7908;51.688;7.130;2024-01-30T00:05:20;3.70;99.90
15617;DHT22;7908;51.688;7.130;2024-01-30T00:07:49;3.70;99.90
15617;DHT22;7908;51.688;7.130;2024-01-30T00:10:18;3.70;99.90
15617;DHT22;7908;51.688;7.130;2024-01-30T00:12:48;3.70;99.90
15617;DHT22;7908;51.688;7.130;2024-01-30T00:15:16;3.70;99.90
15617;DHT22;7908;51.688;7.130;2024-01-30T00:17:45;3.70;99.90
15617;DHT22;7908;51.688;7.130;2024-01-30T00:20:14;3.80;99.90
15617;DHT22;7908;51.688;7.130;2024-01-30T00:22:45;3.80;99.90
15617;DHT22;7908;51.688;7.130;2024-01-30T00:25:14;3.80;99.90
15617;DHT22;7908;51.688;7.130;2024-01-30T00:27:43;3.80;99.90
15617;DHT22;7908;51.688;7.130;2024-01-30T00:30:13;3.70;99.90
15617;DHT22;7908;51.688;7.130;2024-01-30T00:32:41;3.70;99.90
15617;DHT22;7908;51.688;7.130;2024-01-30T00:35:10;3.70;99.90
15617;DHT22;7908;51.688;7.130;2024-01-30T00:37:39;3.60;99.90
15617;DHT22;7908;51.688;7.130;2024-01-30T00:40:09;3.60;99.90
15617;DHT22;7908;51.688;7.130;2024-01-30T00:42:43;3.60;99.90
15617;DHT22;7908;51.688;7.130;2024-01-30T00:45:12;3.60;99.90
15617;DHT22;7908;51.688;7.130;2024-01-30T00:47:40;3.60;99.90
15617;DHT22;7908;51.688;7.130;2024-01-30T00:50:09;3.60;99.90
15617;DHT22;7908;51.688;7.130;2024-01-30T00:52:38;3.60;99.90
15617;DHT22;7908;51.688;7.130;2024-01-30T00:55:09;3.70;99.90
15617;DHT22;7908;51.688;7.130;2024-01-30T00:57:38;3.70;99.90
15617;DHT22;7908;51.688;7.130;2024-01-30T01:00:10;3.70;99.90
15617;DHT22;7908;51.688;7.130;2024-01-30T01:02:41;3.80;99.90
15617;DHT22;7908;51.688;7.130;2024-01-30T01:05:09;3.80;99.90
15617;DHT22;7908;51.688;7.130;2024-01-30T01:07:38;3.80;99.90
15617;DHT22;7908;51.688;7.130;2024-01-30T01:10:07;3.80;99.90
15617;DHT22;7908;51.688;7.130;2024-01-30T01:12:37;3.90;99.90
15617;DHT22;7908;51.688;7.130;2024-01-30T01:15:06;3.90;99.90
15617;DHT22;7908;51.688;7.130;2024-01-30T01:17:37;3.90;99.90
15617;DHT22;7908;51.688;7.130;2024-01-30T01:20:05;3.90;99.90
15617;DHT22;7908;51.688;7.130;2024-01-30T01:22:34;3.90;99.90
15617;DHT22;7908;51.688;7.130;2024-01-30T01:25:06;3.90;99.90
15617;DHT22;7908;51.688;7.130;2024-01-30T01:27:35;3.90;99.90
15617;DHT22;7908;51.688;7.130;2024-01-30T01:30:12;3.90;99.90
15617;DHT22;7908;51.688;7.130;2024-01-30T01:32:45;4.00;99.90
15617;DHT22;7908;51.688;7.130;2024-01-30T01:35:18;4.00;99.90
15617;DHT22;7908;51.688;7.130;2024-01-30T01:37:46;4.00;99.90
15617;DHT22;7908;51.688;7.130;2024-01-30T01:40:14;4.00;99.90
15617;DHT22;7908;51.688;7.130;2024-01-30T01:42:43;4.00;99.90
15617;DHT22;7908;51.688;7.130;2024-01-30T01:45:13;4.00;99.90
15617;DHT22;7908;51.688;7.130;2024-01-30T01:47:42;4.00;99.90
15617;DHT22;7908;51.688;7.130;2024-01-30T01:50:12;3.90;99.90
15617;DHT22;7908;51.688;7.130;2024-01-30T01:52:43;4.00;99.90
15617;DHT22;7908;51.688;7.130;2024-01-30T01:55:11;4.00;99.90
15617;DHT22;7908;51.688;7.130;2024-01-30T01:57:40;4.00;99.90
15617;DHT22;7908;51.688;7.130;2024-01-30T02:00:10;4.00;99.90
15617;DHT22;7908;51.688;7.130;2024-01-30T02:02:40;4.00;99.90
15617;DHT22;7908;51.688;7.130;2024-01-30T02:05:09;4.00;99.90
15617;DHT22;7908;51.688;7.130;2024-01-30T02:07:37;4.10;99.90
15617;DHT22;7908;51.688;7.130;2024-01-30T02:10:07;4.20;99.90
15617;DHT22;7908;51.688;7.130;2024-01-30T02:12:36;4.20;99.90
15617;DHT22;7908;51.688;7.130;2024-01-30T02:15:04;4.20;99.90
15617;DHT22;7908;51.688;7.130;2024-01-30T02:17:34;4.20;99.90
15617;DHT22;7908;51.688;7.130;2024-01-30T02:20:05;4.20;99.90
15617;DHT22;7908;51.688;7.130;2024-01-30T02:22:35;4.20;99.90
15617;DHT22;7908;51.688;7.130;2024-01-30T02:25:04;4.30;99.90
15617;DHT22;7908;51.688;7.130;2024-01-30T02:27:32;4.30;99.90
15617;DHT22;7908;51.688;7.130;2024-01-30T02:30:01;4.40;99.90
15617;DHT22;7908;51.688;7.130;2024-01-30T02:32:29;4.40;99.90
15617;DHT22;7908;51.688;7.130;2024-01-30T02:34:57;4.60;99.90
15617;DHT22;7908;51.688;7.130;2024-01-30T02:37:26;4.70;99.90
15617;DHT22;7908;51.688;7.130;2024-01-30T02:39:58;4.80;99.90
15617;DHT22;7908;51.688;7.130;2024-01-30T02:42:26;4.90;99.90
15617;DHT22;7908;51.688;7.130;2024-01-30T02:44:54;5.00;99.90
15617;DHT22;7908;51.688;7.130;2024-01-30T02:47:23;5.10;99.90
15617;DHT22;7908;51.688;7.130;2024-01-30T02:49:51;5.10;99.90
15617;DHT22;7908;51.688;7.130;2024-01-30T02:52:22;5.20;99.90
15617;DHT22;7908;51.688;7.130;2024-01-30T02:54:51;5.30;99.90
15617;DHT22;7908;51.688;7.130;2024-01-30T02:57:21;5.30;99.90
15617;DHT22;7908;51.688;7.130;2024-01-30T02:59:49;5.30;99.90
15617;DHT22;7908;51.688;7.130;2024-01-30T03:02:19;5.30;99.90
15617;DHT22;7908;51.688;7.130;2024-01-30T03:04:47;5.30;99.90
15617;DHT22;7908;51.688;7.130;2024-01-30T03:07:15;5.30;99.90
15617;DHT22;7908;51.688;7.130;2024-01-30T03:09:43;5.30;99.90
15617;DHT22;7908;51.688;7.130;2024-01-30T03:12:12;5.30;99.90
15617;DHT22;7908;51.688;7.130;2024-01-30T03:14:42;5.20;99.90
15617;DHT22;7908;51.688;7.130;2024-01-30T03:17:10;5.20;99.90
15617;DHT22;7908;51.688;7.130;2024-01-30T03:19:38;5.20;99.90
15617;DHT22;7908;51.688;7.130;2024-01-30T03:22:07;5.20;99.90
15617;DHT22;7908;51.688;7.130;2024-01-30T03:24:35;5.20;99.90
15617;DHT22;7908;51.688;7.130;2024-01-30T03:27:04;5.20;99.90
15617;DHT22;7908;51.688;7.130;2024-01-30T03:29:32;5.10;99.90
15617;DHT22;7908;51.688;7.130;2024-01-30T03:32:02;5.10;99.90
15617;DHT22;7908;51.688;7.130;2024-01-30T03:34:31;5.10;99.90
15617;DHT22;7908;51.688;7.130;2024-01-30T03:36:59;5.00;99.90
15617;DHT22;7908;51.688;7.130;2024-01-30T03:39:28;5.00;99.90
15617;DHT22;7908;51.688;7.130;2024-01-30T03:41:57;5.00;99.90
15617;DHT22;7908;51.688;7.130;2024-01-30T03:44:25;5.00;99.90
15617;DHT22;7908;51.688;7.130;2024-01-30T03:46:53;4.90;99.90
15617;DHT22;7908;51.688;7.130;2024-01-30T03:49:23;4.90;99.90
15617;DHT22;7908;51.688;7.130;2024-01-30T03:51:52;4.90;99.90
15617;DHT22;7908;51.688;7.130;2024-01-30T03:54:20;4.80;99.90
15617;DHT22;7908;51.688;7.130;2024-01-30T03:56:48;4.80;99.90
15617;DHT22;7908;51.688;7.130;2024-01-30T03:59:17;4.80;99.90
15617;DHT22;7908;51.688;7.130;2024-01-30T04:01:51;4.80;99.90
15617;DHT22;7908;51.688;7.130;2024-01-30T04:04:19;4.90;99.90
15617;DHT22;7908;51.688;7.130;2024-01-30T04:06:50;4.90;99.90
15617;DHT22;7908;51.688;7.130;2024-01-30T04:09:18;4.90;99.90
15617;DHT22;7908;51.688;7.130;2024-01-30T04:11:46;4.90;99.90
15617;DHT22;7908;51.688;7.130;2024-01-30T04:14:15;4.80;99.90
15617;DHT22;7908;51.688;7.130;2024-01-30T04:16:43;4.80;99.90
15617;DHT22;7908;51.688;7.130;2024-01-30T04:19:11;4.80;99.90
15617;DHT22;7908;51.688;7.130;2024-01-30T04:21:42;4.70;99.90
15617;DHT22;7908;51.688;7.130;2024-01-30T04:24:11;4.60;99.90
15617;DHT22;7908;51.688;7.130;2024-01-30T04:26:40;4.50;99.90
15617;DHT22;7908;51.688;7.130;2024-01-30T04:29:08;4.50;99.90
15617;DHT22;7908;51.688;7.130;2024-01-30T04:31:37;4.40;99.90
15617;DHT22;7908;51.688;7.130;2024-01-30T04:34:05;4.30;99.90
15617;DHT22;7908;51.688;7.130;2024-01-30T04:36:33;4.20;99.90
15617;DHT22;7908;51.688;7.130;2024-01-30T04:39:02;4.20;99.90
15617;DHT22;7908;51.688;7.130;2024-01-30T04:41:32;4.10;99.90
15617;DHT22;7908;51.688;7.130;2024-01-30T04:44:00;4.00;99.90
15617;DHT22;7908;51.688;7.130;2024-01-30T04:46:29;4.00;99.90
15617;DHT22;7908;51.688;7.130;2024-01-30T04:48:57;3.90;99.90
15617;DHT22;7908;51.688;7.130;2024-01-30T04:51:26;3.80;99.90
15617;DHT22;7908;51.688;7.130;2024-01-30T04:53:54;3.80;99.90
15617;DHT22;7908;51.688;7.130;2024-01-30T04:56:23;3.70;99.90
15617;DHT22;7908;51.688;7.130;2024-01-30T04:58:52;3.60;99.90
15617;DHT22;7908;51.688;7.130;2024-01-30T05:01:21;3.60;99.90
15617;DHT22;7908;51.688;7.130;2024-01-30T05:03:50;3.60;99.90
15617;DHT22;7908;51.688;7.130;2024-01-30T05:06:23;3.60;99.90
15617;DHT22;7908;51.688;7.130;2024-01-30T05:08:52;3.60;99.90
15617;DHT22;7908;51.688;7.130;2024-01-30T05:11:21;3.60;99.90
15617;DHT22;7908;51.688;7.130;2024-01-30T05:13:49;3.70;99.90
15617;DHT22;7908;51.688;7.130;2024-01-30T05:16:19;3.70;99.90
15617;DHT22;7908;51.688;7.130;2024-01-30T05:18:47;3.70;99.90
15617;DHT22;7908;51.688;7.130;2024-01-30T05:21:15;3.60;99.90
15617;DHT22;7908;51.688;7.130;2024-01-30T05:23:44;3.60;99.90
15617;DHT22;7908;51.688;7.130;2024-01-30T05:26:12;3.70;99.90
15617;DHT22;7908;51.688;7.130;2024-01-30T05:28:41;3.70;99.90
15617;DHT22;7908;51.688;7.130;2024-01-30T05:31:11;3.60;99.90
15617;DHT22;7908;51.688;7.130;2024-01-30T05:33:41;3.70;99.90
15617;DHT22;7908;51.688;7.130;2024-01-30T05:36:11;3.60;99.90
15617;DHT22;7908;51.688;7.130;2024-01-30T05:38:40;3.70;99.90
15617;DHT22;7908;51.688;7.130;2024-01-30T05:41:08;3.60;99.90
15617;DHT22;7908;51.688;7.130;2024-01-30T05:43:36;3.60;99.90
15617;DHT22;7908;51.688;7.130;2024-01-30T05:46:05;3.60;99.90
15617;DHT22;7908;51.688;7.130;2024-01-30T05:48:34;3.60;99.90
15617;DHT22;7908;51.688;7.130;2024-01-30T05:51:04;3.60;99.90
15617;DHT22;7908;51.688;7.130;2024-01-30T05:53:33;3.60;99.90
15617;DHT22;7908;51.688;7.130;2024-01-30T05:56:01;3.60;99.90
15617;DHT22;7908;51.688;7.130;2024-01-30T06:01:18;3.60;99.90
15617;DHT22;7908;51.688;7.130;2024-01-30T06:03:47;3.60;99.90
15617;DHT22;7908;51.688;7.130;2024-01-30T06:06:16;3.60;99.90
15617;DHT22;7908;51.688;7.130;2024-01-30T06:08:44;3.60;99.90
15617;DHT22;7908;51.688;7.130;2024-01-30T06:11:13;3.60;99.90
15617;DHT22;7908;51.688;7.130;2024-01-30T06:13:42;3.50;99.90
15617;DHT22;7908;51.688;7.130;2024-01-30T06:16:14;3.50;99.90
15617;DHT22;7908;51.688;7.130;2024-01-30T06:18:44;3.50;99.90
15617;DHT22;7908;51.688;7.130;2024-01-30T06:21:13;3.40;99.90
15617;DHT22;7908;51.688;7.130;2024-01-30T06:23:42;3.40;99.90
15617;DHT22;7908;51.688;7.130;2024-01-30T06:26:11;3.50;99.90
15617;DHT22;7908;51.688;7.130;2024-01-30T06:28:39;3.40;99.90
15617;DHT22;7908;51.688;7.130;2024-01-30T06:31:08;3.50;99.90
15617;DHT22;7908;51.688;7.130;2024-01-30T06:33:38;3.50;99.90
15617;DHT22;7908;51.688;7.130;2024-01-30T06:36:13;3.50;99.90
15617;DHT22;7908;51.688;7.130;2024-01-30T06:38:43;3.60;99.90
15617;DHT22;7908;51.688;7.130;2024-01-30T06:41:12;3.70;99.90
15617;DHT22;7908;51.688;7.130;2024-01-30T06:43:45;2.80;99.90
15617;DHT22;7908;51.688;7.130;2024-01-30T06:46:16;3.80;99.90
15617;DHT22;7908;51.688;7.130;2024-01-30T06:48:45;3.90;99.90
15617;DHT22;7908;51.688;7.130;2024-01-30T06:51:15;3.70;99.90
15617;DHT22;7908;51.688;7.130;2024-01-30T06:53:44;3.80;99.90
15617;DHT22;7908;51.688;7.130;2024-01-30T06:56:16;4.60;99.90
15617;DHT22;7908;51.688;7.130;2024-01-30T06:58:58;3.30;99.90
15617;DHT22;7908;51.688;7.130;2024-01-30T07:01:38;3.90;99.90
15617;DHT22;7908;51.688;7.130;2024-01-30T07:04:19;4.70;99.90
15617;DHT22;7908;51.688;7.130;2024-01-30T07:06:55;4.00;99.90
15617;DHT22;7908;51.688;7.130;2024-01-30T07:09:24;4.00;99.90
15617;DHT22;7908;51.688;7.130;2024-01-30T07:11:54;3.10;99.90
15617;DHT22;7908;51.688;7.130;2024-01-30T07:14:26;4.40;99.90
15617;DHT22;7908;51.688;7.130;2024-01-30T07:17:00;3.00;99.90
15617;DHT22;7908;51.688;7.130;2024-01-30T07:19:32;4.20;99.90
15617;DHT22;7908;51.688;7.130;2024-01-30T07:22:05;5.10;99.90
15617;DHT22;7908;51.688;7.130;2024-01-30T07:24:42;4.40;99.90
15617;DHT22;7908;51.688;7.130;2024-01-30T07:27:17;4.30;99.90
15617;DHT22;7908;51.688;7.130;2024-01-30T07:29:51;4.30;99.90
15617;DHT22;7908;51.688;7.130;2024-01-30T07:32:37;4.40;99.90
15617;DHT22;7908;51.688;7.130;2024-01-30T07:35:13;4.50;99.90
15617;DHT22;7908;51.688;7.130;2024-01-30T07:37:49;3.60;99.90
15617;DHT22;7908;51.688;7.130;2024-01-30T07:41:00;3.80;99.90
15617;DHT22;7908;51.688;7.130;2024-01-30T07:44:25;3.70;99.90
15617;DHT22;7908;51.688;7.130;2024-01-30T07:47:07;4.60;99.90
15617;DHT22;7908;51.688;7.130;2024-01-30T07:49:41;5.20;99.90
15617;DHT22;7908;51.688;7.130;2024-01-30T07:52:10;4.60;99.90
15617;DHT22;7908;51.688;7.130;2024-01-30T07:54:41;3.80;99.90
15617;DHT22;7908;51.688;7.130;2024-01-30T07:57:10;3.40;99.90
15617;DHT22;7908;51.688;7.130;2024-01-30T07:59:39;5.60;99.90
15617;DHT22;7908;51.688;7.130;2024-01-30T08:02:13;4.70;99.90
15617;DHT22;7908;51.688;7.130;2024-01-30T08:04:49;4.80;99.90
15617;DHT22;7908;51.688;7.130;2024-01-30T08:07:56;3.70;99.90
15617;DHT22;7908;51.688;7.130;2024-01-30T08:14:04;4.00;99.90
15617;DHT22;7908;51.688;7.130;2024-01-30T08:16:33;5.00;99.90
15617;DHT22;7908;51.688;7.130;2024-01-30T08:19:05;5.10;99.90
15617;DHT22;7908;51.688;7.130;2024-01-30T08:21:34;5.20;99.90
15617;DHT22;7908;51.688;7.130;2024-01-30T08:24:06;5.40;99.90
15617;DHT22;7908;51.688;7.130;2024-01-30T08:26:35;4.90;99.90
15617;DHT22;7908;51.688;7.130;2024-01-30T08:29:08;5.90;99.90
15617;DHT22;7908;51.688;7.130;2024-01-30T08:31:37;5.80;99.90
15617;DHT22;7908;51.688;7.130;2024-01-30T08:37:28;6.10;99.90
15617;DHT22;7908;51.688;7.130;2024-01-30T08:39:59;6.80;99.90
15617;DHT22;7908;51.688;7.130;2024-01-30T08:42:30;6.60;99.90
15617;DHT22;7908;51.688;7.130;2024-01-30T08:45:02;6.60;99.90
15617;DHT22;7908;51.688;7.130;2024-01-30T08:47:32;6.70;99.90
15617;DHT22;7908;51.688;7.130;2024-01-30T08:50:02;6.80;99.90
15617;DHT22;7908;51.688;7.130;2024-01-30T08:53:13;7.20;99.90
15617;DHT22;7908;51.688;7.130;2024-01-30T08:55:43;7.10;99.90
15617;DHT22;7908;51.688;7.130;2024-01-30T08:58:12;7.20;99.90
15617;DHT22;7908;51.688;7.130;2024-01-30T09:00:44;7.20;99.90
15617;DHT22;7908;51.688;7.130;2024-01-30T09:14:17;7.10;99.90
15617;DHT22;7908;51.688;7.130;2024-01-30T09:23:34;7.20;99.90
15617;DHT22;7908;51.688;7.130;2024-01-30T09:26:56;8.40;99.90
15617;DHT22;7908;51.688;7.130;2024-01-30T09:30:14;7.60;99.90
15617;DHT22;7908;51.688;7.130;2024-01-30T09:33:33;8.10;99.90
15617;DHT22;7908;51.688;7.130;2024-01-30T09:36:44;8.40;99.90
15617;DHT22;7908;51.688;7.130;2024-01-30T09:53:16;9.00;99.90
15617;DHT22;7908;51.688;7.130;2024-01-30T09:55:45;9.20;99.90
15617;DHT22;7908;51.688;7.130;2024-01-30T09:58:14;9.30;99.90
15617;DHT22;7908;51.688;7.130;2024-01-30T10:00:43;9.40;99.90
15617;DHT22;7908;51.688;7.130;2024-01-30T10:03:13;9.50;99.90
15617;DHT22;7908;51.688;7.130;2024-01-30T10:05:43;11.50;99.90
15617;DHT22;7908;51.688;7.130;2024-01-30T10:08:21;9.80;99.90
15617;DHT22;7908;51.688;7.130;2024-01-30T10:10:50;10.00;99.90
15617;DHT22;7908;51.688;7.130;2024-01-30T10:13:19;10.00;99.90
15617;DHT22;7908;51.688;7.130;2024-01-30T10:15:48;10.10;99.90
15617;DHT22;7908;51.688;7.130;2024-01-30T10:18:18;10.10;99.90
15617;DHT22;7908;51.688;7.130;2024-01-30T10:20:53;9.80;99.90
15617;DHT22;7908;51.688;7.130;2024-01-30T10:24:04;10.50;99.90
15617;DHT22;7908;51.688;7.130;2024-01-30T10:27:05;10.00;99.90
15617;DHT22;7908;51.688;7.130;2024-01-30T10:29:39;10.30;99.90
15617;DHT22;7908;51.688;7.130;2024-01-30T10:32:27;9.30;99.90
15617;DHT22;7908;51.688;7.130;2024-01-30T10:35:11;9.50;99.90
15617;DHT22;7908;51.688;7.130;2024-01-30T10:37:44;10.70;99.90
15617;DHT22;7908;51.688;7.130;2024-01-30T10:40:35;10.90;99.90
15617;DHT22;7908;51.688;7.130;2024-01-30T10:43:05;10.90;99.90
15617;DHT22;7908;51.688;7.130;2024-01-30T10:46:15;11.10;99.90
15617;DHT22;7908;51.688;7.130;2024-01-30T10:48:50;11.50;99.90
15617;DHT22;7908;51.688;7.130;2024-01-30T10:51:20;11.50;99.90
15617;DHT22;7908;51.688;7.130;2024-01-30T10:53:55;11.60;99.90
15617;DHT22;7908;51.688;7.130;2024-01-30T11:02:14;10.80;99.90
15617;DHT22;7908;51.688;7.130;2024-01-30T11:04:45;10.60;99.90
15617;DHT22;7908;51.688;7.130;2024-01-30T11:07:18;11.70;99.90
15617;DHT22;7908;51.688;7.130;2024-01-30T11:09:48;11.60;99.90
15617;DHT22;7908;51.688;7.130;2024-01-30T11:12:23;11.70;99.90
15617;DHT22;7908;51.688;7.130;2024-01-30T11:15:01;11.80;99.90
15617;DHT22;7908;51.688;7.130;2024-01-30T11:17:43;10.70;99.90
15617;DHT22;7908;51.688;7.130;2024-01-30T11:20:21;11.80;99.90
15617;DHT22;7908;51.688;7.130;2024-01-30T11:23:07;11.70;99.90
15617;DHT22;7908;51.688;7.130;2024-01-30T11:25:39;11.60;99.90
15617;DHT22;7908;51.688;7.130;2024-01-30T11:28:52;12.40;99.90
15617;DHT22;7908;51.688;7.130;2024-01-30T11:31:29;10.80;99.90
15617;DHT22;7908;51.688;7.130;2024-01-30T11:34:42;10.30;99.90
15617;DHT22;7908;51.688;7.130;2024-01-30T11:37:15;11.80;99.90
15617;DHT22;7908;51.688;7.130;2024-01-30T11:39:51;12.20;99.90
15617;DHT22;7908;51.688;7.130;2024-01-30T11:42:26;11.70;99.90
15617;DHT22;7908;51.688;7.130;2024-01-30T11:45:03;11.80;99.90
15617;DHT22;7908;51.688;7.130;2024-01-30T11:47:38;11.70;99.90
15617;DHT22;7908;51.688;7.130;2024-01-30T11:50:20;11.20;99.90
15617;DHT22;7908;51.688;7.130;2024-01-30T11:52:55;11.70;99.90
15617;DHT22;7908;51.688;7.130;2024-01-30T11:55:52;11.70;99.90
15617;DHT22;7908;51.688;7.130;2024-01-30T11:58:45;10.80;99.90
15617;DHT22;7908;51.688;7.130;2024-01-30T12:01:51;10.80;99.90
15617;DHT22;7908;51.688;7.130;2024-01-30T12:04:54;11.40;99.90
15617;DHT22;7908;51.688;7.130;2024-01-30T12:10:46;10.80;99.90
15617;DHT22;7908;51.688;7.130;2024-01-30T12:13:50;10.70;99.90
15617;DHT22;7908;51.688;7.130;2024-01-30T12:16:28;11.70;99.90
15617;DHT22;7908;51.688;7.130;2024-01-30T12:19:10;10.60;99.90
15617;DHT22;7908;51.688;7.130;2024-01-30T12:21:46;11.00;99.90
15617;DHT22;7908;51.688;7.130;2024-01-30T12:24:34;11.10;99.90
15617;DHT22;7908;51.688;7.130;2024-01-30T12:27:14;10.90;99.90
15617;DHT22;7908;51.688;7.130;2024-01-30T12:29:57;10.40;99.90
15617;DHT22;7908;51.688;7.130;2024-01-30T12:32:31;10.50;99.90
15617;DHT22;7908;51.688;7.130;2024-01-30T12:35:18;10.80;99.90
15617;DHT22;7908;51.688;7.130;2024-01-30T12:38:14;11.60;99.90
15617;DHT22;7908;51.688;7.130;2024-01-30T12:40:43;11.60;99.90
15617;DHT22;7908;51.688;7.130;2024-01-30T12:43:19;11.80;99.90
15617;DHT22;7908;51.688;7.130;2024-01-30T12:46:16;11.80;99.90
15617;DHT22;7908;51.688;7.130;2024-01-30T12:49:03;11.00;99.90
15617;DHT22;7908;51.688;7.130;2024-01-30T12:51:38;12.20;99.90
15617;DHT22;7908;51.688;7.130;2024-01-30T12:54:58;11.40;99.90
15617;DHT22;7908;51.688;7.130;2024-01-30T12:57:27;12.00;99.90
15617;DHT22;7908;51.688;7.130;2024-01-30T12:59:56;12.00;99.90
15617;DHT22;7908;51.688;7.130;2024-01-30T13:02:25;12.00;99.90
15617;DHT22;7908;51.688;7.130;2024-01-30T13:05:02;12.00;99.90
15617;DHT22;7908;51.688;7.130;2024-01-30T13:07:31;11.90;99.90
15617;DHT22;7908;51.688;7.130;2024-01-30T13:10:02;12.00;99.90
15617;DHT22;7908;51.688;7.130;2024-01-30T13:12:31;12.00;99.90
15617;DHT22;7908;51.688;7.130;2024-01-30T13:15:01;12.00;99.90
15617;DHT22;7908;51.688;7.130;2024-01-30T13:17:32;11.90;99.90
15617;DHT22;7908;51.688;7.130;2024-01-30T13:20:01;11.90;99.90
15617;DHT22;7908;51.688;7.130;2024-01-30T13:22:38;11.90;99.90
15617;DHT22;7908;51.688;7.130;2024-01-30T13:25:08;11.80;99.90
15617;DHT22;7908;51.688;7.130;2024-01-30T13:27:37;11.80;99.90
15617;DHT22;7908;51.688;7.130;2024-01-30T13:30:08;11.80;99.90
15617;DHT22;7908;51.688;7.130;2024-01-30T13:32:37;11.80;99.90
15617;DHT22;7908;51.688;7.130;2024-01-30T13:35:08;11.70;99.90
15617;DHT22;7908;51.688;7.130;2024-01-30T13:37:37;11.70;99.90
15617;DHT22;7908;51.688;7.130;2024-01-30T13:40:07;11.60;99.90
15617;DHT22;7908;51.688;7.130;2024-01-30T13:42:41;11.60;99.90
15617;DHT22;7908;51.688;7.130;2024-01-30T13:45:10;11.60;99.90
15617;DHT22;7908;51.688;7.130;2024-01-30T13:47:44;11.60;99.90
15617;DHT22;7908;51.688;7.130;2024-01-30T13:50:13;11.70;99.90
15617;DHT22;7908;51.688;7.130;2024-01-30T13:52:43;11.70;99.90
15617;DHT22;7908;51.688;7.130;2024-01-30T13:55:12;11.70;99.90
15617;DHT22;7908;51.688;7.130;2024-01-30T13:57:43;11.70;99.90
15617;DHT22;7908;51.688;7.130;2024-01-30T14:00:14;11.60;99.90
15617;DHT22;7908;51.688;7.130;2024-01-30T14:02:43;11.60;99.90
15617;DHT22;7908;51.688;7.130;2024-01-30T14:05:12;11.50;99.90
15617;DHT22;7908;51.688;7.130;2024-01-30T14:07:42;11.50;99.90
15617;DHT22;7908;51.688;7.130;2024-01-30T14:10:12;11.40;99.90
15617;DHT22;7908;51.688;7.130;2024-01-30T14:12:43;11.40;99.90
15617;DHT22;7908;51.688;7.130;2024-01-30T14:15:12;11.40;99.90
15617;DHT22;7908;51.688;7.130;2024-01-30T14:17:54;11.40;99.90
15617;DHT22;7908;51.688;7.130;2024-01-30T14:20:25;11.40;99.90
15617;DHT22;7908;51.688;7.130;2024-01-30T14:22:55;11.40;99.90
15617;DHT22;7908;51.688;7.130;2024-01-30T14:25:24;11.50;99.90
15617;DHT22;7908;51.688;7.130;2024-01-30T14:27:55;11.50;99.90
15617;DHT22;7908;51.688;7.130;2024-01-30T14:30:24;11.60;99.90
15617;DHT22;7908;51.688;7.130;2024-01-30T14:32:53;11.80;99.90
15617;DHT22;7908;51.688;7.130;2024-01-30T14:35:23;11.90;99.90
15617;DHT22;7908;51.688;7.130;2024-01-30T14:37:52;11.90;99.90
15617;DHT22;7908;51.688;7.130;2024-01-30T14:40:21;11.90;99.90
15617;DHT22;7908;51.688;7.130;2024-01-30T14:42:51;11.90;99.90
15617;DHT22;7908;51.688;7.130;2024-01-30T14:45:21;11.90;99.90
15617;DHT22;7908;51.688;7.130;2024-01-30T14:47:50;11.80;99.90
15617;DHT22;7908;51.688;7.130;2024-01-30T14:50:20;11.80;99.90
15617;DHT22;7908;51.688;7.130;2024-01-30T14:52:50;11.80;99.90
15617;DHT22;7908;51.688;7.130;2024-01-30T14:55:18;11.70;99.90
15617;DHT22;7908;51.688;7.130;2024-01-30T14:57:47;11.80;99.90
15617;DHT22;7908;51.688;7.130;2024-01-30T15:00:17;11.80;99.90
15617;DHT22;7908;51.688;7.130;2024-01-30T15:02:54;11.70;99.90
15617;DHT22;7908;51.688;7.130;2024-01-30T15:05:24;11.80;99.90
15617;DHT22;7908;51.688;7.130;2024-01-30T15:07:53;11.70;99.90
15617;DHT22;7908;51.688;7.130;2024-01-30T15:10:22;11.70;99.90
15617;DHT22;7908;51.688;7.130;2024-01-30T15:12:51;11.70;99.90
15617;DHT22;7908;51.688;7.130;2024-01-30T15:15:20;11.60;99.90
15617;DHT22;7908;51.688;7.130;2024-01-30T15:17:54;11.60;99.90
15617;DHT22;7908;51.688;7.130;2024-01-30T15:20:23;11.50;99.90
15617;DHT22;7908;51.688;7.130;2024-01-30T15:22:52;11.50;99.90
15617;DHT22;7908;51.688;7.130;2024-01-30T15:25:21;11.50;99.90
15617;DHT22;7908;51.688;7.130;2024-01-30T15:27:51;11.40;99.90
15617;DHT22;7908;51.688;7.130;2024-01-30T15:30:20;11.40;99.90
15617;DHT22;7908;51.688;7.130;2024-01-30T15:32:51;11.30;99.90
15617;DHT22;7908;51.688;7.130;2024-01-30T15:35:24;11.30;99.90
15617;DHT22;7908;51.688;7.130;2024-01-30T15:37:55;11.20;99.90
15617;DHT22;7908;51.688;7.130;2024-01-30T15:40:25;11.10;99.90
15617;DHT22;7908;51.688;7.130;2024-01-30T15:42:55;11.00;99.90
15617;DHT22;7908;51.688;7.130;2024-01-30T15:45:28;10.90;99.90
15617;DHT22;7908;51.688;7.130;2024-01-30T15:48:00;10.80;99.90
15617;DHT22;7908;51.688;7.130;2024-01-30T15:50:30;10.70;99.90
15617;DHT22;7908;51.688;7.130;2024-01-30T15:52:59;10.70;99.90
15617;DHT22;7908;51.688;7.130;2024-01-30T15:55:29;10.70;99.90
15617;DHT22;7908;51.688;7.130;2024-01-30T15:57:59;10.60;99.90
15617;DHT22;7908;51.688;7.130;2024-01-30T16:00:28;10.60;99.90
15617;DHT22;7908;51.688;7.130;2024-01-30T16:02:57;10.50;99.90
15617;DHT22;7908;51.688;7.130;2024-01-30T16:05:27;10.40;99.90
15617;DHT22;7908;51.688;7.130;2024-01-30T16:07:57;10.40;99.90
15617;DHT22;7908;51.688;7.130;2024-01-30T16:10:27;10.30;99.90
15617;DHT22;7908;51.688;7.130;2024-01-30T16:12:57;10.20;99.90
15617;DHT22;7908;51.688;7.130;2024-01-30T16:15:26;10.10;99.90
15617;DHT22;7908;51.688;7.130;2024-01-30T16:17:55;10.10;99.90
15617;DHT22;7908;51.688;7.130;2024-01-30T16:20:25;10.10;99.90
15617;DHT22;7908;51.688;7.130;2024-01-30T16:22:56;10.20;99.90
15617;DHT22;7908;51.688;7.130;2024-01-30T16:25:27;10.30;99.90
15617;DHT22;7908;51.688;7.130;2024-01-30T16:27:56;10.30;99.90
15617;DHT22;7908;51.688;7.130;2024-01-30T16:30:26;10.20;99.90
15617;DHT22;7908;51.688;7.130;2024-01-30T16:32:56;10.20;99.90
15617;DHT22;7908;51.688;7.130;2024-01-30T16:35:30;10.10;99.90
15617;DHT22;7908;51.688;7.130;2024-01-30T16:38:12;10.10;99.90
15617;DHT22;7908;51.688;7.130;2024-01-30T16:40:44;10.10;99.90
15617;DHT22;7908;51.688;7.130;2024-01-30T16:43:13;10.20;99.90
15617;DHT22;7908;51.688;7.130;2024-01-30T16:45:42;10.10;99.90
15617;DHT22;7908;51.688;7.130;2024-01-30T16:48:13;10.00;99.90
15617;DHT22;7908;51.688;7.130;2024-01-30T16:50:47;10.00;99.90
15617;DHT22;7908;51.688;7.130;2024-01-30T16:53:16;10.00;99.90
15617;DHT22;7908;51.688;7.130;2024-01-30T16:55:47;10.00;99.90
15617;DHT22;7908;51.688;7.130;2024-01-30T16:58:16;10.00;99.90
15617;DHT22;7908;51.688;7.130;2024-01-30T17:00:49;10.00;99.90
15617;DHT22;7908;51.688;7.130;2024-01-30T17:03:19;10.00;99.90
15617;DHT22;7908;51.688;7.130;2024-01-30T17:05:50;9.90;99.90
15617;DHT22;7908;51.688;7.130;2024-01-30T17:08:23;9.90;99.90
15617;DHT22;7908;51.688;7.130;2024-01-30T17:10:54;9.90;99.90
15617;DHT22;7908;51.688;7.130;2024-01-30T17:13:28;10.00;99.90
15617;DHT22;7908;51.688;7.130;2024-01-30T17:16:00;10.00;99.90
15617;DHT22;7908;51.688;7.130;2024-01-30T17:18:31;10.10;99.90
15617;DHT22;7908;51.688;7.130;2024-01-30T17:21:01;10.10;99.90